EGXP METAR and TAF | Updated Today

EGXP METAR

RAF Scampton

Observation time: 62 min. ago

EGXP 061950Z AUTO 22016KT 9999 // OVC044/// 15/11 Q1022

Need help? Read our tutorial on how to read METARs or read the parsed version below.

RAF Scampton (EGXP) METAR

  • Weather conditions on Thu, 06 Oct 2022 19:50:00 +0000 (62 min. ago):
  • Present conditions: Dry
  • Clouds: Overcast sky at 1341 meters
  • Visibility: Greater than 10 km
  • Wind: 220 degrees at 16 knots
  • Temperature: 15 celsius
  • Dew point: 11 celsius
  • Pressure: 1022 millibars
  • Remarks: None


Useful to know...

EGXP TAF

RAF Scampton

TAF EGXP 061347Z 0615/0618 23016KT 9999 SCT030 TEMPO 0615/0618 23016G26KT
Observation time: 7:05 hr. ago
Need help? Read our tutorial on how to read TAFs or read the parsed version below.

Parsed version of TAF for RAF Scampton (EGXP)

  • From 06 October at 15:00 UTC, to day 06 of the month at 18:00 UTC
  • Clouds: Scattered at 914 meters
  • Visibility: Greater than 10 km
  • Wind: 230 degrees at 16
  • Expected to arise temporarily, from 06 October at 15:00 UTC, to day 06 of the month at 18:00 UTC
  • Wind: 230 degrees at 16